createdAt,value
2022-11-01T00:02:01.192Z,23.50
2022-11-01T00:04:28.223Z,23.67
2022-11-01T00:06:55.457Z,30.02
2022-11-01T00:09:22.765Z,18.20
2022-11-01T00:11:49.978Z,29.17
2022-11-01T00:14:19.075Z,37.42
2022-11-01T00:16:46.408Z,28.08
2022-11-01T00:19:13.644Z,34.42
2022-11-01T00:21:40.666Z,34.67
2022-11-01T00:24:07.801Z,28.52
2022-11-01T00:26:35.483Z,36.38
2022-11-01T00:29:02.714Z,33.85
2022-11-01T00:31:29.850Z,35.28
2022-11-01T00:33:56.887Z,114.25
2022-11-01T00:36:23.972Z,34.50
2022-11-01T00:38:51.788Z,40.65
2022-11-01T00:41:20.727Z,63.97
2022-11-01T00:43:48.200Z,37.78
2022-11-01T00:46:15.987Z,48.55
2022-11-01T00:48:43.165Z,35.17
2022-11-01T00:51:10.860Z,33.60
2022-11-01T00:53:37.863Z,42.15
2022-11-01T00:56:06.649Z,40.78
2022-11-01T00:58:34.311Z,24.38
2022-11-01T01:01:01.424Z,21.85
2022-11-01T01:03:28.668Z,28.48
2022-11-01T01:05:55.898Z,27.10
2022-11-01T01:08:24.170Z,28.58
2022-11-01T01:10:51.532Z,17.13
2022-11-01T01:13:19.167Z,16.80
2022-11-01T01:15:46.787Z,24.42
2022-11-01T01:18:14.498Z,31.60
2022-11-01T01:20:41.578Z,36.33
2022-11-01T01:23:08.916Z,21.52
2022-11-01T01:25:40.134Z,21.02
2022-11-01T01:28:07.638Z,17.48
2022-11-01T01:30:34.671Z,16.67
2022-11-01T01:33:01.787Z,25.75
2022-11-01T01:35:28.851Z,11.73
2022-11-01T01:37:56.032Z,11.43
2022-11-01T01:40:23.063Z,18.88
2022-11-01T01:42:50.080Z,18.38
2022-11-01T01:45:29.139Z,17.95
2022-11-01T01:48:03.599Z,12.75
2022-11-01T01:50:42.120Z,15.10
2022-11-01T01:53:22.023Z,16.85
2022-11-01T01:55:56.476Z,19.90
2022-11-01T01:58:28.933Z,15.68
2022-11-01T02:00:56.480Z,14.65
2022-11-01T02:03:28.724Z,12.82
2022-11-01T02:06:02.676Z,14.02
2022-11-01T02:08:30.123Z,12.07
2022-11-01T02:11:01.125Z,18.58
2022-11-01T02:13:29.807Z,15.52
2022-11-01T02:16:22.698Z,23.50
2022-11-01T02:18:49.638Z,18.20
2022-11-01T02:21:31.373Z,11.48
2022-11-01T02:24:35.993Z,16.15
2022-11-01T02:27:15.393Z,20.13
2022-11-01T02:30:04.587Z,19.13
2022-11-01T02:32:44.116Z,17.73
2022-11-01T02:35:24.175Z,14.48
2022-11-01T02:38:05.621Z,17.17
2022-11-01T02:41:07.437Z,20.42
2022-11-01T02:43:46.772Z,18.15
2022-11-01T02:46:34.496Z,16.48
2022-11-01T02:49:02.789Z,13.43
2022-11-01T02:51:30.430Z,24.80
2022-11-01T02:54:01.183Z,14.63
2022-11-01T02:56:28.921Z,14.35
2022-11-01T02:58:56.377Z,25.10
2022-11-01T03:01:26.474Z,21.17
2022-11-01T03:03:57.490Z,14.27
2022-11-01T03:06:33.008Z,14.88
2022-11-01T03:09:04.658Z,15.00
2022-11-01T03:11:52.825Z,23.73
2022-11-01T03:14:22.868Z,25.15
2022-11-01T03:17:00.526Z,17.70
2022-11-01T03:19:45.744Z,18.17
2022-11-01T03:22:18.771Z,13.70
2022-11-01T03:24:52.166Z,13.38
2022-11-01T03:27:36.309Z,13.77
2022-11-01T03:30:14.064Z,17.85
2022-11-01T03:32:45.783Z,18.30
2022-11-01T03:35:18.364Z,12.97
2022-11-01T03:40:17.188Z,17.60
2022-11-01T03:42:48.206Z,21.40
2022-11-01T03:45:20.532Z,20.35
2022-11-01T03:47:47.749Z,13.77
2022-11-01T03:50:19.171Z,20.77
2022-11-01T03:52:47.137Z,27.25
2022-11-01T03:55:19.480Z,19.83
2022-11-01T03:57:51.749Z,12.25
2022-11-01T04:00:22.892Z,14.85
2022-11-01T04:02:51.435Z,25.05
2022-11-01T04:05:20.231Z,16.58
2022-11-01T04:07:47.835Z,13.13
2022-11-01T04:10:15.336Z,16.27
2022-11-01T04:12:45.474Z,18.80
2022-11-01T04:15:31.270Z,13.27
2022-11-01T04:18:35.700Z,9.32
2022-11-01T04:21:07.092Z,19.20
2022-11-01T04:23:34.561Z,11.20
2022-11-01T04:26:02.758Z,14.40
2022-11-01T04:28:29.756Z,11.48
2022-11-01T04:30:57.204Z,12.38
2022-11-01T04:33:24.199Z,8.13
2022-11-01T04:35:51.232Z,10.82
2022-11-01T04:38:18.325Z,8.00
2022-11-01T04:40:45.376Z,9.30
2022-11-01T04:43:13.179Z,10.75
2022-11-01T04:45:40.431Z,11.75
2022-11-01T04:48:13.387Z,12.75
2022-11-01T04:50:41.786Z,17.50
2022-11-01T04:53:10.052Z,7.28
2022-11-01T04:55:37.468Z,20.30
2022-11-01T04:58:06.539Z,6.85
2022-11-01T05:00:34.223Z,8.93
2022-11-01T05:03:06.400Z,12.70
2022-11-01T05:05:35.063Z,12.90
2022-11-01T05:08:06.092Z,11.10
2022-11-01T05:10:35.028Z,28.30
2022-11-01T05:13:03.156Z,14.50
2022-11-01T05:15:30.429Z,11.38
2022-11-01T05:17:59.481Z,12.48
2022-11-01T05:20:26.575Z,16.92
2022-11-01T05:22:59.483Z,17.73
2022-11-01T05:25:27.777Z,15.95
2022-11-01T05:28:03.695Z,8.63
2022-11-01T05:30:30.993Z,14.25
2022-11-01T05:32:59.812Z,13.40
2022-11-01T05:35:28.382Z,11.15
2022-11-01T05:37:56.121Z,12.73
2022-11-01T05:40:23.425Z,11.13
2022-11-01T05:42:50.462Z,14.75
2022-11-01T05:45:17.487Z,9.02
2022-11-01T05:47:44.507Z,10.35
2022-11-01T05:50:13.413Z,12.88
2022-11-01T05:52:40.709Z,16.50
2022-11-01T05:55:08.561Z,15.40
2022-11-01T05:57:36.500Z,7.65
2022-11-01T06:00:05.302Z,14.63
2022-11-01T06:02:39.112Z,11.63
2022-11-01T06:05:06.392Z,6.10
2022-11-01T06:07:35.664Z,12.82
2022-11-01T06:10:04.065Z,6.60
2022-11-01T06:12:31.535Z,9.55
2022-11-01T06:14:58.866Z,9.25
2022-11-01T06:17:25.971Z,19.48
2022-11-01T06:19:53.042Z,15.85
2022-11-01T06:22:20.153Z,12.65
2022-11-01T06:24:47.162Z,13.43
2022-11-01T06:27:14.158Z,7.38
2022-11-01T06:29:41.162Z,14.98
2022-11-01T06:32:08.561Z,8.63
2022-11-01T06:34:36.903Z,7.03
2022-11-01T06:37:05.547Z,10.52
2022-11-01T06:39:32.558Z,9.55
2022-11-01T06:41:59.588Z,8.02
2022-11-01T06:44:26.559Z,9.00
2022-11-01T06:46:54.906Z,9.88
2022-11-01T06:49:22.228Z,11.35
2022-11-01T06:51:49.334Z,12.93
2022-11-01T06:54:16.408Z,14.20
2022-11-01T06:56:46.260Z,8.00
2022-11-01T06:59:13.562Z,6.32
2022-11-01T07:01:40.607Z,8.20
2022-11-01T07:04:07.980Z,21.10
2022-11-01T07:06:35.079Z,4.18
2022-11-01T07:09:02.139Z,8.32
2022-11-01T07:11:31.757Z,5.63
2022-11-01T07:13:59.453Z,5.70
2022-11-01T07:16:27.001Z,7.85
2022-11-01T07:18:54.153Z,15.25
2022-11-01T07:21:21.487Z,10.95
2022-11-01T07:23:48.690Z,7.15
2022-11-01T07:26:16.122Z,5.43
2022-11-01T07:28:43.121Z,5.18
2022-11-01T07:31:10.117Z,12.60
2022-11-01T07:33:37.512Z,10.02
2022-11-01T07:36:04.737Z,7.53
2022-11-01T07:38:32.334Z,8.77
2022-11-01T07:40:59.437Z,5.18
2022-11-01T07:43:26.470Z,6.55
2022-11-01T07:45:53.563Z,5.65
2022-11-01T07:48:20.717Z,5.47
2022-11-01T07:50:47.869Z,6.68
2022-11-01T07:53:17.740Z,9.90
2022-11-01T07:55:45.979Z,4.00
2022-11-01T07:58:14.343Z,3.05
2022-11-01T08:00:42.283Z,6.30
2022-11-01T08:03:14.957Z,6.32
2022-11-01T08:08:10.423Z,6.72
2022-11-01T08:10:38.425Z,8.95
2022-11-01T08:13:07.377Z,4.63
2022-11-01T08:15:35.047Z,6.03
2022-11-01T08:18:02.963Z,26.95
2022-11-01T08:20:30.416Z,6.60
2022-11-01T08:22:57.673Z,6.35
2022-11-01T08:25:25.297Z,8.02
2022-11-01T08:27:52.300Z,8.07
2022-11-01T08:30:20.436Z,5.90
2022-11-01T08:32:47.606Z,8.27
2022-11-01T08:35:14.808Z,11.27
2022-11-01T08:37:51.984Z,10.13
2022-11-01T08:40:19.587Z,4.85
2022-11-01T08:42:48.660Z,12.23
2022-11-01T08:45:16.726Z,5.35
2022-11-01T08:47:43.875Z,10.55
2022-11-01T08:50:13.317Z,9.98
2022-11-01T08:52:41.010Z,8.55
2022-11-01T08:55:09.473Z,6.68
2022-11-01T08:57:36.829Z,6.20
2022-11-01T09:00:07.083Z,6.70
2022-11-01T09:02:34.516Z,6.22
2022-11-01T09:05:05.055Z,6.88
2022-11-01T09:07:37.063Z,7.13
2022-11-01T09:10:05.244Z,2.33
2022-11-01T09:12:32.297Z,5.80
2022-11-01T09:14:59.470Z,7.22
2022-11-01T09:17:26.603Z,7.80
2022-11-01T09:19:53.635Z,2.17
2022-11-01T09:22:20.775Z,11.13
2022-11-01T09:24:47.887Z,4.10
2022-11-01T09:27:16.167Z,4.53
2022-11-01T09:29:45.435Z,1.67
2022-11-01T09:32:15.205Z,4.20
2022-11-01T09:34:42.185Z,2.95
2022-11-01T09:37:09.346Z,4.18
2022-11-01T09:39:36.336Z,3.25
2022-11-01T09:42:10.152Z,2.63
2022-11-01T09:44:43.864Z,1.15
2022-11-01T09:47:18.374Z,3.78
2022-11-01T09:49:48.182Z,5.13
2022-11-01T09:52:23.971Z,6.25
2022-11-01T09:54:51.258Z,2.10
2022-11-01T09:57:24.671Z,1.90
2022-11-01T10:00:13.686Z,6.43
2022-11-01T10:02:52.592Z,3.20
2022-11-01T10:05:38.459Z,6.40
2022-11-01T10:08:20.405Z,4.32
2022-11-01T10:11:19.521Z,2.78
2022-11-01T10:13:59.892Z,9.05
2022-11-01T10:16:37.230Z,4.35
2022-11-01T10:19:17.458Z,5.35
2022-11-01T10:21:54.459Z,5.00
2022-11-01T10:24:40.209Z,3.78
2022-11-01T10:27:22.092Z,3.90
2022-11-01T10:30:12.094Z,4.57
2022-11-01T10:32:52.481Z,5.00
2022-11-01T10:35:29.551Z,3.58
2022-11-01T10:38:19.124Z,2.03
2022-11-01T10:41:10.415Z,0.77
2022-11-01T10:43:44.007Z,2.30
2022-11-01T10:46:19.863Z,2.75
2022-11-01T10:48:55.317Z,4.57
2022-11-01T10:51:28.004Z,1.80
2022-11-01T10:54:02.886Z,3.38
2022-11-01T10:56:41.589Z,0.95
2022-11-01T10:59:30.137Z,1.27
2022-11-01T11:02:00.217Z,2.35
2022-11-01T11:04:28.670Z,7.97
2022-11-01T11:06:56.784Z,4.53
2022-11-01T11:09:34.438Z,2.47
2022-11-01T11:12:06.476Z,4.35
2022-11-01T11:14:34.938Z,4.43
2022-11-01T11:17:03.204Z,4.90
2022-11-01T11:19:30.269Z,3.70
2022-11-01T11:21:59.084Z,6.38
2022-11-01T11:24:33.390Z,4.47
2022-11-01T11:27:03.208Z,6.88
2022-11-01T11:29:38.745Z,4.40
2022-11-01T11:32:19.868Z,3.83
2022-11-01T11:35:04.978Z,4.57
2022-11-01T11:37:34.100Z,2.63
2022-11-01T11:40:24.400Z,6.93
2022-11-01T11:42:54.283Z,2.63
2022-11-01T11:45:27.945Z,2.45
2022-11-01T11:47:57.112Z,1.25
2022-11-01T11:50:27.611Z,4.38
2022-11-01T11:53:07.671Z,7.07
2022-11-01T11:55:47.588Z,6.05
2022-11-01T11:58:20.307Z,2.70
2022-11-01T12:03:17.375Z,3.38
2022-11-01T12:05:53.632Z,3.70
2022-11-01T12:08:49.662Z,1.95
2022-11-01T12:11:17.842Z,32.60
2022-11-01T12:13:59.203Z,7.55
2022-11-01T12:19:01.110Z,2.25
2022-11-01T12:21:41.109Z,4.90
2022-11-01T12:24:20.277Z,6.68
2022-11-01T12:26:49.053Z,9.85
2022-11-01T12:29:29.025Z,3.47
2022-11-01T12:32:01.292Z,2.33
2022-11-01T12:34:38.347Z,3.08
2022-11-01T12:37:19.207Z,6.10
2022-11-01T12:40:15.268Z,3.00
2022-11-01T12:42:50.440Z,4.80
2022-11-01T12:45:50.026Z,3.63
2022-11-01T12:48:28.105Z,1.65
2022-11-01T12:51:00.143Z,5.80
2022-11-01T12:53:34.246Z,3.60
2022-11-01T12:56:01.364Z,3.55
2022-11-01T12:58:33.496Z,5.57
2022-11-01T13:01:41.886Z,4.75
2022-11-01T13:04:23.414Z,8.50
2022-11-01T13:07:28.817Z,3.85
2022-11-01T13:13:04.416Z,9.75
2022-11-01T13:15:41.090Z,5.53
2022-11-01T13:18:19.376Z,4.25
2022-11-01T13:21:07.185Z,9.35
2022-11-01T13:23:53.796Z,2.35
2022-11-01T13:26:24.273Z,3.33
2022-11-01T13:29:34.382Z,3.03
2022-11-01T13:32:10.629Z,5.03
2022-11-01T13:34:56.627Z,6.70
2022-11-01T13:37:47.061Z,3.38
2022-11-01T13:40:32.296Z,11.50
2022-11-01T13:43:09.782Z,7.35
2022-11-01T13:45:42.813Z,12.80
2022-11-01T13:48:15.962Z,9.10
2022-11-01T13:50:56.136Z,4.43
2022-11-01T13:53:39.211Z,6.60
2022-11-01T13:56:12.917Z,5.70
2022-11-01T13:58:40.369Z,4.10
2022-11-01T14:01:35.414Z,1.60
2022-11-01T14:04:08.655Z,6.63
2022-11-01T14:06:37.783Z,2.15
2022-11-01T14:09:23.487Z,3.72
2022-11-01T14:11:53.455Z,3.60
2022-11-01T14:14:29.597Z,2.42
2022-11-01T14:17:26.885Z,10.20
2022-11-01T14:19:56.776Z,5.95
2022-11-01T14:22:27.181Z,6.65
2022-11-01T14:25:02.848Z,3.78
2022-11-01T14:27:35.474Z,5.47
2022-11-01T14:32:39.381Z,4.25
2022-11-01T14:35:12.674Z,3.65
2022-11-01T14:37:47.820Z,9.82
2022-11-01T14:40:46.977Z,7.35
2022-11-01T14:43:22.951Z,6.38
2022-11-01T14:45:59.309Z,4.05
2022-11-01T14:48:44.656Z,8.80
2022-11-01T14:51:30.018Z,7.90
2022-11-01T14:54:04.353Z,8.02
2022-11-01T14:56:39.790Z,3.88
2022-11-01T14:59:20.683Z,9.25
2022-11-01T15:01:50.320Z,9.68
2022-11-01T15:04:25.538Z,5.88
2022-11-01T15:06:52.699Z,10.68
2022-11-01T15:09:22.879Z,9.25
2022-11-01T15:11:53.076Z,6.07
2022-11-01T15:14:27.116Z,9.10
2022-11-01T15:16:54.297Z,8.55
2022-11-01T15:19:27.857Z,5.38
2022-11-01T15:22:01.008Z,4.90
2022-11-01T15:24:28.298Z,6.28
2022-11-01T15:26:55.407Z,18.60
2022-11-01T15:29:24.763Z,11.18
2022-11-01T15:31:58.050Z,6.63
2022-11-01T15:34:27.922Z,8.05
2022-11-01T15:36:55.519Z,9.50
2022-11-01T15:39:29.264Z,6.60
2022-11-01T15:41:57.400Z,13.00
2022-11-01T15:44:26.803Z,10.07
2022-11-01T15:46:58.461Z,9.90
2022-11-01T15:49:28.659Z,5.50
2022-11-01T15:52:05.058Z,11.85
2022-11-01T15:54:47.382Z,9.32
2022-11-01T15:57:21.143Z,7.68
2022-11-01T15:59:54.591Z,8.63
2022-11-01T16:02:37.813Z,9.30
2022-11-01T16:05:05.661Z,6.88
2022-11-01T16:07:34.285Z,6.53
2022-11-01T16:10:04.956Z,10.52
2022-11-01T16:12:36.158Z,7.25
2022-11-01T16:15:08.085Z,10.02
2022-11-01T16:17:38.579Z,10.75
2022-11-01T16:20:27.470Z,7.47
2022-11-01T16:22:55.864Z,15.10
2022-11-01T16:25:25.598Z,10.18
2022-11-01T16:27:54.626Z,7.10
2022-11-01T16:30:40.266Z,7.90
2022-11-01T16:33:19.578Z,12.30
2022-11-01T16:35:51.514Z,6.03
2022-11-01T16:38:33.499Z,12.20
2022-11-01T16:41:02.907Z,6.30
2022-11-01T16:43:35.307Z,11.23
2022-11-01T16:46:04.867Z,13.70
2022-11-01T16:48:35.737Z,7.85
2022-11-01T16:51:03.664Z,10.65
2022-11-01T16:53:31.144Z,7.97
2022-11-01T16:56:34.985Z,8.15
2022-11-01T16:58:58.325Z,16.50
2022-11-01T17:01:34.184Z,6.28
2022-11-01T17:04:02.977Z,18.30
2022-11-01T17:06:34.598Z,11.05
2022-11-01T17:09:12.558Z,13.90
2022-11-01T17:11:40.362Z,17.23
2022-11-01T17:14:07.443Z,13.00
2022-11-01T17:16:34.699Z,8.45
2022-11-01T17:19:02.330Z,12.70
2022-11-01T17:21:32.274Z,11.82
2022-11-01T17:23:59.346Z,12.52
2022-11-01T17:26:26.865Z,21.88
2022-11-01T17:28:55.079Z,17.88
2022-11-01T17:31:22.477Z,15.50
2022-11-01T17:33:49.525Z,15.82
2022-11-01T17:36:17.494Z,7.60
2022-11-01T17:38:45.445Z,20.20
2022-11-01T17:41:18.112Z,17.33
2022-11-01T17:46:21.313Z,6.60
2022-11-01T17:48:48.310Z,17.33
2022-11-01T17:51:17.068Z,15.98
2022-11-01T17:53:44.399Z,18.23
2022-11-01T17:56:11.547Z,17.52
2022-11-01T17:58:38.815Z,10.45
2022-11-01T18:01:07.944Z,11.70
2022-11-01T18:03:35.071Z,11.52
2022-11-01T18:06:02.057Z,16.05
2022-11-01T18:08:33.373Z,22.90
2022-11-01T18:11:23.297Z,12.32
2022-11-01T18:13:53.171Z,18.35
2022-11-01T18:16:27.395Z,12.40
2022-11-01T18:19:05.563Z,11.65
2022-11-01T18:21:48.850Z,17.42
2022-11-01T18:24:22.893Z,9.70
2022-11-01T18:26:51.317Z,9.18
2022-11-01T18:29:23.830Z,10.70
2022-11-01T18:32:05.803Z,16.67
2022-11-01T18:34:56.026Z,15.97
2022-11-01T18:37:36.949Z,10.38
2022-11-01T18:40:19.076Z,11.80
2022-11-01T18:42:47.470Z,14.05
2022-11-01T18:45:19.489Z,15.70
2022-11-01T18:47:53.680Z,16.73
2022-11-01T18:50:26.115Z,8.38
2022-11-01T18:53:19.819Z,14.82
2022-11-01T18:55:50.114Z,15.48
2022-11-01T18:58:24.371Z,12.93
2022-11-01T19:01:02.597Z,16.65
2022-11-01T19:03:29.886Z,14.27
2022-11-01T19:06:10.675Z,20.55
2022-11-01T19:08:38.767Z,13.32
2022-11-01T19:11:05.891Z,12.20
2022-11-01T19:13:34.649Z,18.20
2022-11-01T19:16:02.025Z,19.83
2022-11-01T19:18:29.842Z,12.55
2022-11-01T19:20:58.838Z,12.35
2022-11-01T19:23:38.211Z,14.30
2022-11-01T19:26:30.633Z,13.60
2022-11-01T19:28:58.766Z,12.35
2022-11-01T19:31:38.681Z,8.02
2022-11-01T19:34:10.836Z,14.38
2022-11-01T19:36:41.216Z,13.07
2022-11-01T19:39:23.486Z,15.75
2022-11-01T19:41:53.121Z,8.93
2022-11-01T19:44:24.187Z,10.93
2022-11-01T19:47:16.164Z,12.88
2022-11-01T19:49:43.541Z,13.05
2022-11-01T19:52:10.662Z,18.83
2022-11-01T19:54:41.121Z,11.55
2022-11-01T19:57:32.397Z,18.50
2022-11-01T20:00:18.865Z,16.42
2022-11-01T20:02:48.648Z,11.63
2022-11-01T20:05:36.495Z,14.93
2022-11-01T20:08:15.958Z,15.85
2022-11-01T20:10:42.963Z,13.48
2022-11-01T20:13:10.004Z,16.70
2022-11-01T20:15:37.183Z,14.20
2022-11-01T20:18:04.545Z,21.70
2022-11-01T20:20:32.503Z,11.60
2022-11-01T20:23:12.969Z,14.27
2022-11-01T20:25:46.525Z,16.05
2022-11-01T20:28:13.534Z,15.32
2022-11-01T20:30:40.595Z,10.50
2022-11-01T20:33:07.713Z,10.70
2022-11-01T20:35:34.749Z,16.55
2022-11-01T20:38:01.764Z,12.60
2022-11-01T20:40:28.783Z,12.93
2022-11-01T20:42:56.776Z,12.95
2022-11-01T20:45:23.789Z,19.05
2022-11-01T20:47:51.214Z,18.67
2022-11-01T20:50:19.042Z,16.95
2022-11-01T20:52:46.307Z,22.83
2022-11-01T20:55:13.430Z,11.85
2022-11-01T20:57:40.806Z,17.48
2022-11-01T21:00:17.940Z,16.17
2022-11-01T21:02:48.338Z,15.82
2022-11-01T21:05:22.764Z,25.00
2022-11-01T21:07:54.768Z,19.10
2022-11-01T21:10:27.068Z,14.88
2022-11-01T21:12:54.260Z,12.88
2022-11-01T21:15:38.911Z,18.63
2022-11-01T21:18:12.048Z,18.60
2022-11-01T21:20:41.469Z,24.88
2022-11-01T21:23:26.389Z,15.35
2022-11-01T21:25:57.853Z,20.52
2022-11-01T21:28:34.145Z,9.50
2022-11-01T21:31:09.971Z,13.18
2022-11-01T21:33:39.380Z,16.98
2022-11-01T21:36:18.424Z,19.33
2022-11-01T21:38:59.982Z,21.05
2022-11-01T21:41:45.143Z,14.18
2022-11-01T21:44:18.064Z,17.27
2022-11-01T21:46:50.796Z,17.10
2022-11-01T21:51:52.033Z,24.25
2022-11-01T21:54:19.089Z,27.40
2022-11-01T21:56:46.453Z,14.80
2022-11-01T21:59:13.772Z,15.23
2022-11-01T22:01:46.131Z,16.65
2022-11-01T22:04:14.897Z,17.38
2022-11-01T22:06:42.813Z,23.65
2022-11-01T22:09:10.799Z,12.82
2022-11-01T22:11:37.888Z,15.60
2022-11-01T22:14:05.524Z,16.05
2022-11-01T22:16:32.796Z,9.65
2022-11-01T22:19:00.481Z,24.92
2022-11-01T22:21:27.527Z,26.02
2022-11-01T22:23:59.655Z,21.17
2022-11-01T22:26:26.984Z,17.27
2022-11-01T22:28:54.188Z,18.50
2022-11-01T22:31:21.479Z,13.90
2022-11-01T22:33:52.887Z,27.58
2022-11-01T22:36:28.119Z,22.35
2022-11-01T22:38:57.040Z,30.50
2022-11-01T22:41:34.145Z,13.85
2022-11-01T22:44:09.909Z,16.80
2022-11-01T22:46:44.502Z,14.63
2022-11-01T22:49:28.627Z,13.15
2022-11-01T22:51:59.324Z,21.75
2022-11-01T22:54:32.771Z,14.88
2022-11-01T22:57:10.296Z,15.52
2022-11-01T22:59:42.405Z,12.40
2022-11-01T23:02:25.692Z,10.05
2022-11-01T23:05:08.193Z,17.55
2022-11-01T23:07:42.516Z,21.58
2022-11-01T23:10:29.676Z,12.93
2022-11-01T23:13:39.156Z,20.85
2022-11-01T23:16:22.073Z,17.77
2022-11-01T23:21:17.111Z,15.93
2022-11-01T23:23:45.741Z,15.40
2022-11-01T23:26:15.070Z,12.73
2022-11-01T23:28:48.436Z,7.10
2022-11-01T23:31:16.634Z,16.08
2022-11-01T23:33:48.756Z,17.95
2022-11-01T23:36:20.377Z,12.57
2022-11-01T23:38:55.388Z,15.15
2022-11-01T23:41:27.384Z,24.55
2022-11-01T23:43:58.100Z,18.55
2022-11-01T23:46:28.234Z,19.95
2022-11-01T23:49:03.268Z,14.57
2022-11-01T23:51:31.282Z,18.85
2022-11-01T23:53:58.763Z,14.52
2022-11-01T23:56:25.915Z,18.02
2022-11-01T23:59:01.970Z,13.90
